sensor_id;sensor_type;location;lat;lon;timestamp;P1;durP1;ratioP1;P2;durP2;ratioP2
1320;SDS011;653;51.480;11.992;2023-04-01T00:01:18;4.07;;;1.10;;
1320;SDS011;653;51.480;11.992;2023-04-01T00:03:45;4.07;;;1.10;;
1320;SDS011;653;51.480;11.992;2023-04-01T00:06:13;5.73;;;1.70;;
1320;SDS011;653;51.480;11.992;2023-04-01T00:08:40;2.90;;;1.30;;
1320;SDS011;653;51.480;11.992;2023-04-01T00:11:09;3.30;;;1.80;;
1320;SDS011;653;51.480;11.992;2023-04-01T00:13:35;4.87;;;1.17;;
1320;SDS011;653;51.480;11.992;2023-04-01T00:16:01;3.90;;;1.77;;
1320;SDS011;653;51.480;11.992;2023-04-01T00:18:28;4.77;;;1.63;;
1320;SDS011;653;51.480;11.992;2023-04-01T00:20:53;3.03;;;1.27;;
1320;SDS011;653;51.480;11.992;2023-04-01T00:23:19;5.50;;;1.10;;
1320;SDS011;653;51.480;11.992;2023-04-01T00:25:45;2.23;;;1.20;;
1320;SDS011;653;51.480;11.992;2023-04-01T00:28:13;4.97;;;1.33;;
1320;SDS011;653;51.480;11.992;2023-04-01T00:30:40;2.80;;;1.27;;
1320;SDS011;653;51.480;11.992;2023-04-01T00:33:05;4.27;;;1.40;;
1320;SDS011;653;51.480;11.992;2023-04-01T00:35:31;1.93;;;1.07;;
1320;SDS011;653;51.480;11.992;2023-04-01T00:37:57;6.37;;;2.23;;
1320;SDS011;653;51.480;11.992;2023-04-01T00:40:34;3.77;;;1.90;;
1320;SDS011;653;51.480;11.992;2023-04-01T00:43:17;2.20;;;1.17;;
1320;SDS011;653;51.480;11.992;2023-04-01T00:45:46;6.37;;;2.00;;
1320;SDS011;653;51.480;11.992;2023-04-01T00:50:58;2.57;;;1.40;;
1320;SDS011;653;51.480;11.992;2023-04-01T00:53:28;4.77;;;1.40;;
1320;SDS011;653;51.480;11.992;2023-04-01T00:56:05;2.90;;;1.20;;
1320;SDS011;653;51.480;11.992;2023-04-01T00:58:37;2.40;;;1.37;;
1320;SDS011;653;51.480;11.992;2023-04-01T01:01:05;5.07;;;1.60;;
1320;SDS011;653;51.480;11.992;2023-04-01T01:03:31;2.60;;;1.40;;
1320;SDS011;653;51.480;11.992;2023-04-01T01:16:46;4.03;;;1.33;;
1320;SDS011;653;51.480;11.992;2023-04-01T01:24:49;3.23;;;1.73;;
1320;SDS011;653;51.480;11.992;2023-04-01T01:27:20;4.03;;;1.40;;
1320;SDS011;653;51.480;11.992;2023-04-01T01:29:55;2.60;;;1.47;;
1320;SDS011;653;51.480;11.992;2023-04-01T01:32:43;7.00;;;1.80;;
1320;SDS011;653;51.480;11.992;2023-04-01T01:38:19;2.23;;;1.30;;
1320;SDS011;653;51.480;11.992;2023-04-01T01:40:48;3.20;;;1.33;;
1320;SDS011;653;51.480;11.992;2023-04-01T01:43:21;4.90;;;1.40;;
1320;SDS011;653;51.480;11.992;2023-04-01T01:45:49;3.47;;;1.30;;
1320;SDS011;653;51.480;11.992;2023-04-01T01:48:16;2.03;;;1.20;;
1320;SDS011;653;51.480;11.992;2023-04-01T01:50:43;2.50;;;1.33;;
1320;SDS011;653;51.480;11.992;2023-04-01T01:53:11;3.30;;;1.20;;
1320;SDS011;653;51.480;11.992;2023-04-01T01:55:38;3.13;;;1.37;;
1320;SDS011;653;51.480;11.992;2023-04-01T02:00:50;5.87;;;1.43;;
1320;SDS011;653;51.480;11.992;2023-04-01T02:03:19;1.70;;;1.30;;
1320;SDS011;653;51.480;11.992;2023-04-01T02:05:46;5.67;;;1.20;;
1320;SDS011;653;51.480;11.992;2023-04-01T02:08:30;4.43;;;1.13;;
1320;SDS011;653;51.480;11.992;2023-04-01T02:11:02;4.00;;;1.40;;
1320;SDS011;653;51.480;11.992;2023-04-01T02:13:31;5.53;;;1.20;;
1320;SDS011;653;51.480;11.992;2023-04-01T02:16:19;7.87;;;1.40;;
1320;SDS011;653;51.480;11.992;2023-04-01T02:18:48;4.40;;;1.20;;
1320;SDS011;653;51.480;11.992;2023-04-01T02:21:16;2.93;;;1.10;;
1320;SDS011;653;51.480;11.992;2023-04-01T02:23:43;2.73;;;1.50;;
1320;SDS011;653;51.480;11.992;2023-04-01T02:26:13;3.43;;;2.20;;
1320;SDS011;653;51.480;11.992;2023-04-01T02:28:39;2.90;;;1.20;;
1320;SDS011;653;51.480;11.992;2023-04-01T02:31:07;5.63;;;1.67;;
1320;SDS011;653;51.480;11.992;2023-04-01T02:33:34;3.57;;;1.70;;
1320;SDS011;653;51.480;11.992;2023-04-01T02:36:00;2.40;;;1.30;;
1320;SDS011;653;51.480;11.992;2023-04-01T02:38:25;3.30;;;1.47;;
1320;SDS011;653;51.480;11.992;2023-04-01T02:40:56;3.90;;;1.33;;
1320;SDS011;653;51.480;11.992;2023-04-01T02:43:23;2.07;;;1.53;;
1320;SDS011;653;51.480;11.992;2023-04-01T02:45:49;2.50;;;1.20;;
1320;SDS011;653;51.480;11.992;2023-04-01T02:48:14;2.47;;;1.30;;
1320;SDS011;653;51.480;11.992;2023-04-01T02:50:40;2.97;;;1.37;;
1320;SDS011;653;51.480;11.992;2023-04-01T02:53:05;2.97;;;1.30;;
1320;SDS011;653;51.480;11.992;2023-04-01T02:55:32;3.50;;;1.50;;
1320;SDS011;653;51.480;11.992;2023-04-01T02:57:58;2.67;;;1.27;;
1320;SDS011;653;51.480;11.992;2023-04-01T03:00:24;4.27;;;1.60;;
1320;SDS011;653;51.480;11.992;2023-04-01T03:02:50;5.30;;;1.43;;
1320;SDS011;653;51.480;11.992;2023-04-01T03:05:16;4.30;;;1.27;;
1320;SDS011;653;51.480;11.992;2023-04-01T03:07:41;3.93;;;1.17;;
1320;SDS011;653;51.480;11.992;2023-04-01T03:10:10;3.77;;;1.20;;
1320;SDS011;653;51.480;11.992;2023-04-01T03:12:40;3.63;;;1.37;;
1320;SDS011;653;51.480;11.992;2023-04-01T03:15:05;4.40;;;1.20;;
1320;SDS011;653;51.480;11.992;2023-04-01T03:17:31;2.13;;;1.03;;
1320;SDS011;653;51.480;11.992;2023-04-01T03:19:56;2.30;;;1.20;;
1320;SDS011;653;51.480;11.992;2023-04-01T03:22:22;2.03;;;1.17;;
1320;SDS011;653;51.480;11.992;2023-04-01T03:24:48;3.47;;;1.33;;
1320;SDS011;653;51.480;11.992;2023-04-01T03:27:14;5.13;;;1.57;;
1320;SDS011;653;51.480;11.992;2023-04-01T03:29:39;2.23;;;1.20;;
1320;SDS011;653;51.480;11.992;2023-04-01T03:32:05;1.77;;;1.10;;
1320;SDS011;653;51.480;11.992;2023-04-01T03:34:31;3.33;;;1.27;;
1320;SDS011;653;51.480;11.992;2023-04-01T03:36:56;2.90;;;1.50;;
1320;SDS011;653;51.480;11.992;2023-04-01T03:39:22;2.10;;;1.10;;
1320;SDS011;653;51.480;11.992;2023-04-01T03:41:48;3.77;;;1.27;;
1320;SDS011;653;51.480;11.992;2023-04-01T03:44:13;6.10;;;1.30;;
1320;SDS011;653;51.480;11.992;2023-04-01T03:46:39;4.60;;;1.53;;
1320;SDS011;653;51.480;11.992;2023-04-01T03:49:11;4.90;;;1.60;;
1320;SDS011;653;51.480;11.992;2023-04-01T03:51:40;6.10;;;2.30;;
1320;SDS011;653;51.480;11.992;2023-04-01T03:54:07;7.07;;;1.40;;
1320;SDS011;653;51.480;11.992;2023-04-01T03:56:33;4.80;;;1.60;;
1320;SDS011;653;51.480;11.992;2023-04-01T03:59:01;5.50;;;1.30;;
1320;SDS011;653;51.480;11.992;2023-04-01T04:01:28;2.27;;;1.40;;
1320;SDS011;653;51.480;11.992;2023-04-01T04:03:54;3.23;;;1.60;;
1320;SDS011;653;51.480;11.992;2023-04-01T04:06:20;4.43;;;1.73;;
1320;SDS011;653;51.480;11.992;2023-04-01T04:08:46;4.13;;;1.40;;
1320;SDS011;653;51.480;11.992;2023-04-01T04:11:11;3.87;;;1.43;;
1320;SDS011;653;51.480;11.992;2023-04-01T04:13:37;3.60;;;1.50;;
1320;SDS011;653;51.480;11.992;2023-04-01T04:16:03;2.27;;;1.00;;
1320;SDS011;653;51.480;11.992;2023-04-01T04:18:29;4.30;;;1.30;;
1320;SDS011;653;51.480;11.992;2023-04-01T04:20:54;3.63;;;1.47;;
1320;SDS011;653;51.480;11.992;2023-04-01T04:23:20;3.90;;;1.60;;
1320;SDS011;653;51.480;11.992;2023-04-01T04:26:03;3.90;;;1.30;;
1320;SDS011;653;51.480;11.992;2023-04-01T04:28:30;3.50;;;1.50;;
1320;SDS011;653;51.480;11.992;2023-04-01T04:30:56;2.60;;;1.40;;
1320;SDS011;653;51.480;11.992;2023-04-01T04:33:22;2.90;;;1.17;;
1320;SDS011;653;51.480;11.992;2023-04-01T04:35:48;3.23;;;1.50;;
1320;SDS011;653;51.480;11.992;2023-04-01T04:38:14;3.70;;;1.40;;
1320;SDS011;653;51.480;11.992;2023-04-01T04:40:41;3.20;;;2.07;;
1320;SDS011;653;51.480;11.992;2023-04-01T04:43:08;2.93;;;1.33;;
1320;SDS011;653;51.480;11.992;2023-04-01T04:45:36;6.30;;;1.67;;
1320;SDS011;653;51.480;11.992;2023-04-01T04:48:01;3.70;;;1.67;;
1320;SDS011;653;51.480;11.992;2023-04-01T04:50:26;4.03;;;1.60;;
1320;SDS011;653;51.480;11.992;2023-04-01T04:52:52;4.17;;;1.30;;
1320;SDS011;653;51.480;11.992;2023-04-01T04:55:18;2.57;;;1.27;;
1320;SDS011;653;51.480;11.992;2023-04-01T04:57:43;4.23;;;1.67;;
1320;SDS011;653;51.480;11.992;2023-04-01T05:00:09;2.80;;;1.30;;
1320;SDS011;653;51.480;11.992;2023-04-01T05:02:37;3.90;;;2.17;;
1320;SDS011;653;51.480;11.992;2023-04-01T05:05:03;2.57;;;1.20;;
1320;SDS011;653;51.480;11.992;2023-04-01T05:07:29;2.30;;;1.20;;
1320;SDS011;653;51.480;11.992;2023-04-01T05:09:55;2.30;;;1.23;;
1320;SDS011;653;51.480;11.992;2023-04-01T05:12:20;2.00;;;1.50;;
1320;SDS011;653;51.480;11.992;2023-04-01T05:14:45;2.00;;;1.50;;
1320;SDS011;653;51.480;11.992;2023-04-01T05:17:11;2.00;;;1.20;;
1320;SDS011;653;51.480;11.992;2023-04-01T05:19:37;6.37;;;1.40;;
1320;SDS011;653;51.480;11.992;2023-04-01T05:22:03;2.97;;;1.37;;
1320;SDS011;653;51.480;11.992;2023-04-01T05:24:29;3.33;;;1.33;;
1320;SDS011;653;51.480;11.992;2023-04-01T05:26:55;3.23;;;1.60;;
1320;SDS011;653;51.480;11.992;2023-04-01T05:29:22;4.70;;;1.97;;
1320;SDS011;653;51.480;11.992;2023-04-01T05:31:48;1.97;;;1.53;;
1320;SDS011;653;51.480;11.992;2023-04-01T05:34:14;2.70;;;1.30;;
1320;SDS011;653;51.480;11.992;2023-04-01T05:36:39;4.20;;;1.60;;
1320;SDS011;653;51.480;11.992;2023-04-01T05:39:06;7.23;;;1.83;;
1320;SDS011;653;51.480;11.992;2023-04-01T05:41:34;5.90;;;1.60;;
1320;SDS011;653;51.480;11.992;2023-04-01T05:44:03;4.03;;;1.87;;
1320;SDS011;653;51.480;11.992;2023-04-01T05:46:29;4.00;;;1.10;;
1320;SDS011;653;51.480;11.992;2023-04-01T05:48:54;1.80;;;1.10;;
1320;SDS011;653;51.480;11.992;2023-04-01T05:51:20;1.40;;;1.20;;
1320;SDS011;653;51.480;11.992;2023-04-01T05:53:45;5.03;;;1.70;;
1320;SDS011;653;51.480;11.992;2023-04-01T05:56:11;2.00;;;1.30;;
1320;SDS011;653;51.480;11.992;2023-04-01T05:58:36;2.97;;;1.50;;
1320;SDS011;653;51.480;11.992;2023-04-01T06:01:11;3.77;;;1.57;;
1320;SDS011;653;51.480;11.992;2023-04-01T06:03:36;1.67;;;1.17;;
1320;SDS011;653;51.480;11.992;2023-04-01T06:06:02;6.33;;;1.60;;
1320;SDS011;653;51.480;11.992;2023-04-01T06:08:29;2.50;;;1.40;;
1320;SDS011;653;51.480;11.992;2023-04-01T06:13:49;5.00;;;1.60;;
1320;SDS011;653;51.480;11.992;2023-04-01T06:16:28;1.90;;;1.40;;
1320;SDS011;653;51.480;11.992;2023-04-01T06:21:50;2.07;;;1.30;;
1320;SDS011;653;51.480;11.992;2023-04-01T06:24:38;4.40;;;1.40;;
1320;SDS011;653;51.480;11.992;2023-04-01T06:32:54;5.20;;;1.63;;
1320;SDS011;653;51.480;11.992;2023-04-01T06:38:08;2.53;;;1.00;;
1320;SDS011;653;51.480;11.992;2023-04-01T06:43:35;2.83;;;1.50;;
1320;SDS011;653;51.480;11.992;2023-04-01T06:51:47;1.83;;;1.43;;
1320;SDS011;653;51.480;11.992;2023-04-01T06:54:28;3.90;;;1.17;;
1320;SDS011;653;51.480;11.992;2023-04-01T06:57:02;1.43;;;0.80;;
1320;SDS011;653;51.480;11.992;2023-04-01T06:59:32;2.87;;;1.57;;
1320;SDS011;653;51.480;11.992;2023-04-01T07:02:09;2.80;;;0.97;;
1320;SDS011;653;51.480;11.992;2023-04-01T07:04:44;2.73;;;0.93;;
1320;SDS011;653;51.480;11.992;2023-04-01T07:09:59;2.63;;;1.13;;
1320;SDS011;653;51.480;11.992;2023-04-01T07:15:00;2.33;;;0.83;;
1320;SDS011;653;51.480;11.992;2023-04-01T07:17:30;1.70;;;0.90;;
1320;SDS011;653;51.480;11.992;2023-04-01T07:20:15;3.20;;;1.17;;
1320;SDS011;653;51.480;11.992;2023-04-01T07:22:43;1.40;;;0.70;;
1320;SDS011;653;51.480;11.992;2023-04-01T07:25:12;2.70;;;1.00;;
1320;SDS011;653;51.480;11.992;2023-04-01T07:27:38;2.73;;;0.73;;
1320;SDS011;653;51.480;11.992;2023-04-01T07:30:12;1.50;;;1.07;;
1320;SDS011;653;51.480;11.992;2023-04-01T07:32:51;4.93;;;1.13;;
1320;SDS011;653;51.480;11.992;2023-04-01T07:35:22;3.30;;;1.30;;
1320;SDS011;653;51.480;11.992;2023-04-01T07:40:49;3.20;;;1.10;;
1320;SDS011;653;51.480;11.992;2023-04-01T07:48:38;2.77;;;1.33;;
1320;SDS011;653;51.480;11.992;2023-04-01T07:51:21;2.03;;;1.20;;
1320;SDS011;653;51.480;11.992;2023-04-01T07:53:54;1.97;;;1.10;;
1320;SDS011;653;51.480;11.992;2023-04-01T07:59:38;4.63;;;1.10;;
1320;SDS011;653;51.480;11.992;2023-04-01T08:05:10;2.37;;;0.90;;
1320;SDS011;653;51.480;11.992;2023-04-01T08:07:49;2.40;;;0.90;;
1320;SDS011;653;51.480;11.992;2023-04-01T08:10:30;1.23;;;0.70;;
1320;SDS011;653;51.480;11.992;2023-04-01T08:13:15;1.70;;;0.90;;
1320;SDS011;653;51.480;11.992;2023-04-01T08:18:22;2.63;;;1.10;;
1320;SDS011;653;51.480;11.992;2023-04-01T08:21:04;1.30;;;1.00;;
1320;SDS011;653;51.480;11.992;2023-04-01T08:23:44;2.70;;;0.90;;
1320;SDS011;653;51.480;11.992;2023-04-01T08:26:46;5.03;;;1.20;;
1320;SDS011;653;51.480;11.992;2023-04-01T08:34:14;4.67;;;1.77;;
1320;SDS011;653;51.480;11.992;2023-04-01T08:36:44;3.43;;;1.40;;
1320;SDS011;653;51.480;11.992;2023-04-01T08:39:13;1.90;;;1.30;;
1320;SDS011;653;51.480;11.992;2023-04-01T08:56:06;1.90;;;1.20;;
1320;SDS011;653;51.480;11.992;2023-04-01T08:58:59;3.97;;;1.13;;
1320;SDS011;653;51.480;11.992;2023-04-01T09:18:20;2.57;;;1.20;;
1320;SDS011;653;51.480;11.992;2023-04-01T09:24:05;2.60;;;1.10;;
1320;SDS011;653;51.480;11.992;2023-04-01T09:27:00;4.23;;;1.13;;
1320;SDS011;653;51.480;11.992;2023-04-01T09:29:38;2.37;;;1.23;;
1320;SDS011;653;51.480;11.992;2023-04-01T09:32:22;4.43;;;1.03;;
1320;SDS011;653;51.480;11.992;2023-04-01T09:37:53;2.37;;;1.47;;
1320;SDS011;653;51.480;11.992;2023-04-01T09:46:02;1.03;;;0.80;;
1320;SDS011;653;51.480;11.992;2023-04-01T10:09:07;1.67;;;1.10;;
1320;SDS011;653;51.480;11.992;2023-04-01T10:17:08;1.50;;;0.90;;
1320;SDS011;653;51.480;11.992;2023-04-01T10:19:55;3.53;;;1.10;;
1320;SDS011;653;51.480;11.992;2023-04-01T10:22:39;1.40;;;0.87;;
1320;SDS011;653;51.480;11.992;2023-04-01T10:33:58;2.27;;;0.80;;
1320;SDS011;653;51.480;11.992;2023-04-01T10:39:27;1.00;;;0.70;;
1320;SDS011;653;51.480;11.992;2023-04-01T10:53:52;2.60;;;0.90;;
1320;SDS011;653;51.480;11.992;2023-04-01T11:21:31;1.43;;;0.90;;
1320;SDS011;653;51.480;11.992;2023-04-01T11:30:23;1.53;;;1.00;;
1320;SDS011;653;51.480;11.992;2023-04-01T11:40:27;1.60;;;1.20;;
1320;SDS011;653;51.480;11.992;2023-04-01T11:51:16;1.93;;;0.90;;
1320;SDS011;653;51.480;11.992;2023-04-01T11:59:51;1.60;;;0.93;;
1320;SDS011;653;51.480;11.992;2023-04-01T12:02:41;3.20;;;1.20;;
1320;SDS011;653;51.480;11.992;2023-04-01T12:10:38;0.90;;;0.80;;
1320;SDS011;653;51.480;11.992;2023-04-01T12:16:41;3.73;;;1.30;;
1320;SDS011;653;51.480;11.992;2023-04-01T12:33:02;1.73;;;0.80;;
1320;SDS011;653;51.480;11.992;2023-04-01T12:47:51;3.00;;;1.00;;
1320;SDS011;653;51.480;11.992;2023-04-01T12:56:09;1.20;;;0.70;;
1320;SDS011;653;51.480;11.992;2023-04-01T13:02:11;1.77;;;1.13;;
1320;SDS011;653;51.480;11.992;2023-04-01T13:09:57;0.90;;;0.50;;
1320;SDS011;653;51.480;11.992;2023-04-01T13:12:36;2.13;;;1.27;;
1320;SDS011;653;51.480;11.992;2023-04-01T13:23:37;1.00;;;0.60;;
1320;SDS011;653;51.480;11.992;2023-04-01T13:29:09;1.00;;;0.73;;
1320;SDS011;653;51.480;11.992;2023-04-01T13:31:51;0.90;;;0.50;;
1320;SDS011;653;51.480;11.992;2023-04-01T13:42:45;2.13;;;0.73;;
1320;SDS011;653;51.480;11.992;2023-04-01T13:45:23;1.00;;;0.60;;
1320;SDS011;653;51.480;11.992;2023-04-01T13:47:53;1.30;;;0.80;;
1320;SDS011;653;51.480;11.992;2023-04-01T13:53:23;1.50;;;0.93;;
1320;SDS011;653;51.480;11.992;2023-04-01T14:02:02;1.90;;;0.80;;
1320;SDS011;653;51.480;11.992;2023-04-01T14:04:14;1.70;;;1.10;;
1320;SDS011;653;51.480;11.992;2023-04-01T14:07:39;1.40;;;1.10;;
1320;SDS011;653;51.480;11.992;2023-04-01T14:15:36;1.70;;;1.10;;
1320;SDS011;653;51.480;11.992;2023-04-01T14:32:38;4.17;;;2.80;;
1320;SDS011;653;51.480;11.992;2023-04-01T14:38:27;3.37;;;2.30;;
1320;SDS011;653;51.480;11.992;2023-04-01T14:41:16;5.33;;;2.87;;
1320;SDS011;653;51.480;11.992;2023-04-01T14:44:05;5.70;;;3.10;;
1320;SDS011;653;51.480;11.992;2023-04-01T14:49:41;1.90;;;1.63;;
1320;SDS011;653;51.480;11.992;2023-04-01T14:52:31;2.57;;;1.90;;
1320;SDS011;653;51.480;11.992;2023-04-01T14:54:59;4.43;;;2.90;;
1320;SDS011;653;51.480;11.992;2023-04-01T14:57:27;3.03;;;2.30;;
1320;SDS011;653;51.480;11.992;2023-04-01T14:59:54;2.97;;;2.10;;
1320;SDS011;653;51.480;11.992;2023-04-01T15:08:13;2.80;;;2.27;;
1320;SDS011;653;51.480;11.992;2023-04-01T15:13:14;3.00;;;2.13;;
1320;SDS011;653;51.480;11.992;2023-04-01T15:20:56;3.77;;;2.77;;
1320;SDS011;653;51.480;11.992;2023-04-01T15:28:39;2.27;;;2.07;;
1320;SDS011;653;51.480;11.992;2023-04-01T15:31:29;3.00;;;2.10;;
1320;SDS011;653;51.480;11.992;2023-04-01T15:50:26;2.20;;;1.80;;
1320;SDS011;653;51.480;11.992;2023-04-01T15:52:49;2.83;;;2.10;;
1320;SDS011;653;51.480;11.992;2023-04-01T16:02:21;2.60;;;2.10;;
1320;SDS011;653;51.480;11.992;2023-04-01T16:04:22;3.33;;;1.87;;
1320;SDS011;653;51.480;11.992;2023-04-01T16:07:10;2.83;;;2.10;;
1320;SDS011;653;51.480;11.992;2023-04-01T16:15:29;2.80;;;2.50;;
1320;SDS011;653;51.480;11.992;2023-04-01T16:20:55;3.23;;;2.27;;
1320;SDS011;653;51.480;11.992;2023-04-01T16:44:05;2.57;;;2.27;;
1320;SDS011;653;51.480;11.992;2023-04-01T16:46:44;3.20;;;1.60;;
1320;SDS011;653;51.480;11.992;2023-04-01T17:00:17;2.03;;;1.50;;
1320;SDS011;653;51.480;11.992;2023-04-01T17:03:39;1.70;;;1.03;;
1320;SDS011;653;51.480;11.992;2023-04-01T17:17:42;3.67;;;2.03;;
1320;SDS011;653;51.480;11.992;2023-04-01T17:41:31;5.37;;;3.17;;
1320;SDS011;653;51.480;11.992;2023-04-01T17:50:21;3.80;;;3.13;;
1320;SDS011;653;51.480;11.992;2023-04-01T17:53:01;4.90;;;3.70;;
1320;SDS011;653;51.480;11.992;2023-04-01T17:58:15;6.53;;;4.23;;
1320;SDS011;653;51.480;11.992;2023-04-01T18:17:42;9.10;;;5.30;;
1320;SDS011;653;51.480;11.992;2023-04-01T18:20:22;5.20;;;4.70;;
1320;SDS011;653;51.480;11.992;2023-04-01T18:23:36;4.53;;;4.00;;
1320;SDS011;653;51.480;11.992;2023-04-01T18:25:50;5.60;;;4.20;;
1320;SDS011;653;51.480;11.992;2023-04-01T18:33:36;4.80;;;4.40;;
1320;SDS011;653;51.480;11.992;2023-04-01T18:36:23;10.83;;;3.67;;
1320;SDS011;653;51.480;11.992;2023-04-01T18:39:04;4.43;;;4.00;;
1320;SDS011;653;51.480;11.992;2023-04-01T18:41:36;4.67;;;3.30;;
1320;SDS011;653;51.480;11.992;2023-04-01T18:52:52;5.30;;;3.90;;
1320;SDS011;653;51.480;11.992;2023-04-01T18:57:52;6.73;;;5.20;;
1320;SDS011;653;51.480;11.992;2023-04-01T19:05:38;3.50;;;2.57;;
1320;SDS011;653;51.480;11.992;2023-04-01T19:14:02;2.90;;;2.30;;
1320;SDS011;653;51.480;11.992;2023-04-01T19:25:15;2.93;;;2.60;;
1320;SDS011;653;51.480;11.992;2023-04-01T19:46:58;3.53;;;2.90;;
1320;SDS011;653;51.480;11.992;2023-04-01T19:52:31;2.80;;;2.47;;
1320;SDS011;653;51.480;11.992;2023-04-01T19:58:12;3.63;;;2.97;;
1320;SDS011;653;51.480;11.992;2023-04-01T20:00:58;4.47;;;3.10;;
1320;SDS011;653;51.480;11.992;2023-04-01T20:03:26;3.83;;;3.37;;
1320;SDS011;653;51.480;11.992;2023-04-01T20:08:45;4.57;;;3.13;;
1320;SDS011;653;51.480;11.992;2023-04-01T20:19:55;4.80;;;3.90;;
1320;SDS011;653;51.480;11.992;2023-04-01T20:22:37;5.47;;;3.30;;
1320;SDS011;653;51.480;11.992;2023-04-01T20:27:48;5.37;;;3.63;;
1320;SDS011;653;51.480;11.992;2023-04-01T20:41:54;3.90;;;3.20;;
1320;SDS011;653;51.480;11.992;2023-04-01T20:44:41;4.27;;;3.27;;
1320;SDS011;653;51.480;11.992;2023-04-01T20:47:29;5.37;;;3.50;;
1320;SDS011;653;51.480;11.992;2023-04-01T20:53:14;5.10;;;3.70;;
1320;SDS011;653;51.480;11.992;2023-04-01T21:20:18;4.70;;;3.53;;
1320;SDS011;653;51.480;11.992;2023-04-01T21:23:06;4.80;;;3.90;;
1320;SDS011;653;51.480;11.992;2023-04-01T21:31:13;5.07;;;4.47;;
1320;SDS011;653;51.480;11.992;2023-04-01T21:33:59;4.83;;;3.80;;
1320;SDS011;653;51.480;11.992;2023-04-01T21:51:02;5.53;;;4.67;;
1320;SDS011;653;51.480;11.992;2023-04-01T21:53:33;5.83;;;5.23;;
1320;SDS011;653;51.480;11.992;2023-04-01T21:56:14;5.50;;;4.60;;
1320;SDS011;653;51.480;11.992;2023-04-01T22:01:51;6.83;;;4.70;;
1320;SDS011;653;51.480;11.992;2023-04-01T22:07:46;5.53;;;4.73;;
1320;SDS011;653;51.480;11.992;2023-04-01T22:10:30;5.67;;;5.17;;
1320;SDS011;653;51.480;11.992;2023-04-01T22:13:02;6.47;;;5.77;;
1320;SDS011;653;51.480;11.992;2023-04-01T22:15:50;6.23;;;5.60;;
1320;SDS011;653;51.480;11.992;2023-04-01T22:18:40;5.80;;;5.30;;
1320;SDS011;653;51.480;11.992;2023-04-01T22:23:47;6.60;;;5.60;;
1320;SDS011;653;51.480;11.992;2023-04-01T22:26:39;6.03;;;5.43;;
1320;SDS011;653;51.480;11.992;2023-04-01T22:29:31;6.87;;;6.10;;
1320;SDS011;653;51.480;11.992;2023-04-01T22:33:05;7.70;;;6.30;;
1320;SDS011;653;51.480;11.992;2023-04-01T22:35:12;11.90;;;6.73;;
1320;SDS011;653;51.480;11.992;2023-04-01T22:43:36;7.23;;;6.50;;
1320;SDS011;653;51.480;11.992;2023-04-01T22:56:15;5.93;;;5.33;;
1320;SDS011;653;51.480;11.992;2023-04-01T22:58:45;6.93;;;6.23;;
1320;SDS011;653;51.480;11.992;2023-04-01T23:01:16;6.50;;;4.90;;
1320;SDS011;653;51.480;11.992;2023-04-01T23:03:48;7.03;;;6.10;;
1320;SDS011;653;51.480;11.992;2023-04-01T23:06:17;6.53;;;5.93;;
1320;SDS011;653;51.480;11.992;2023-04-01T23:17:07;7.43;;;5.20;;
1320;SDS011;653;51.480;11.992;2023-04-01T23:36:12;9.17;;;5.50;;
1320;SDS011;653;51.480;11.992;2023-04-01T23:38:40;5.20;;;4.70;;
1320;SDS011;653;51.480;11.992;2023-04-01T23:41:07;6.13;;;5.10;;
1320;SDS011;653;51.480;11.992;2023-04-01T23:43:36;7.33;;;4.60;;
1320;SDS011;653;51.480;11.992;2023-04-01T23:46:03;5.60;;;4.87;;
1320;SDS011;653;51.480;11.992;2023-04-01T23:48:33;5.57;;;4.90;;
1320;SDS011;653;51.480;11.992;2023-04-01T23:51:00;4.33;;;3.93;;
1320;SDS011;653;51.480;11.992;2023-04-01T23:53:28;4.33;;;3.90;;
1320;SDS011;653;51.480;11.992;2023-04-01T23:55:55;5.33;;;4.30;;
